Archival Weather

Heathrow

London, United Kingdom (EGLL)

Report from: Friday, September 23, 2022 9:50 PM BST
Current time: Tuesday, July 16, 2024 10:43 AM BST

Current weather – Weather history – Daily summaries
Weather forecast

Temperature15.0°C (59.0°F)
Dew point11.0°C (51.8°F)
Winds 4 kts (2.1 m/s, 4.6 mph) Vrb
Winds variableWinds variable from North (350°) to East (80°)
Visibility6.2 mi. (10 km)
Clouds Sky clear
Altimeter29.97 in.Hg (1015 mB)
Relative humidity77 %
Density altitude126 ft. (38 m)
Remarks Fully automated report
No clouds detected
No significant changes expected in the next two hours
Flight conditions Visual Meteorological Conditions
Raw dataEGLL 232050Z AUTO 03004KT 350V080 9999 NCD 15/11 Q1015 NOSIG
An error has occurred. This application may no longer respond until reloaded. Reload 🗙